createdAt,value
2023-02-19T00:00:59.005Z,3.50
2023-02-19T00:03:02.448Z,3.50
2023-02-19T00:05:04.642Z,3.40
2023-02-19T00:07:06.521Z,3.40
2023-02-19T00:09:09.962Z,3.50
2023-02-19T00:11:14.786Z,3.50
2023-02-19T00:13:16.632Z,3.70
2023-02-19T00:15:18.502Z,3.60
2023-02-19T00:17:20.323Z,3.60
2023-02-19T00:19:22.328Z,3.60
2023-02-19T00:21:24.394Z,3.60
2023-02-19T00:23:29.089Z,3.60
2023-02-19T00:25:30.916Z,3.60
2023-02-19T00:27:33.045Z,3.60
2023-02-19T00:29:34.775Z,3.80
2023-02-19T00:31:36.835Z,3.80
2023-02-19T00:33:38.655Z,3.70
2023-02-19T00:35:40.568Z,3.60
2023-02-19T00:37:42.484Z,3.60
2023-02-19T00:39:44.598Z,3.50
2023-02-19T00:41:46.531Z,3.50
2023-02-19T00:43:53.166Z,3.50
2023-02-19T00:45:55.185Z,3.40
2023-02-19T00:47:56.901Z,3.50
2023-02-19T00:49:58.715Z,3.50
2023-02-19T00:52:00.603Z,3.50
2023-02-19T00:54:03.437Z,3.40
2023-02-19T00:56:06.545Z,3.50
2023-02-19T00:58:08.463Z,3.40
2023-02-19T01:00:12.042Z,3.40
2023-02-19T01:02:13.893Z,3.40
2023-02-19T01:04:16.591Z,3.40
2023-02-19T01:06:19.865Z,3.40
2023-02-19T01:08:22.189Z,3.50
2023-02-19T01:10:24.307Z,3.40
2023-02-19T01:12:28.149Z,3.40
2023-02-19T01:14:30.075Z,3.40
2023-02-19T01:16:32.539Z,3.30
2023-02-19T01:18:35.139Z,3.30
2023-02-19T01:20:40.696Z,3.40
2023-02-19T01:22:42.585Z,3.40
2023-02-19T01:24:44.513Z,3.50
2023-02-19T01:26:46.353Z,3.50
2023-02-19T01:28:48.542Z,3.50
2023-02-19T01:30:50.418Z,3.40
2023-02-19T01:32:52.270Z,3.40
2023-02-19T01:34:54.149Z,3.40
2023-02-19T01:36:55.997Z,3.40
2023-02-19T01:39:00.705Z,3.40
2023-02-19T01:41:05.845Z,3.50
2023-02-19T01:43:16.545Z,3.70
2023-02-19T01:45:24.573Z,3.60
2023-02-19T01:47:26.502Z,3.40
2023-02-19T01:49:31.769Z,3.40
2023-02-19T01:51:37.931Z,3.50
2023-02-19T01:53:44.469Z,3.50
2023-02-19T01:55:48.206Z,3.50
2023-02-19T01:57:54.017Z,3.60
2023-02-19T02:00:02.165Z,3.60
2023-02-19T02:02:04.146Z,3.60
2023-02-19T02:04:07.992Z,3.70
2023-02-19T02:06:27.948Z,3.70
2023-02-19T02:08:50.072Z,3.70
2023-02-19T02:10:52.807Z,3.70
2023-02-19T02:12:58.283Z,3.70
2023-02-19T02:15:00.165Z,3.70
2023-02-19T02:17:25.309Z,3.80
2023-02-19T02:19:30.228Z,3.80
2023-02-19T02:21:44.670Z,3.90
2023-02-19T02:23:54.466Z,3.80
2023-02-19T02:26:08.562Z,3.80
2023-02-19T02:28:36.322Z,3.80
2023-02-19T02:30:49.557Z,3.70
2023-02-19T02:33:29.020Z,3.70
2023-02-19T02:35:35.242Z,3.70
2023-02-19T02:37:40.791Z,3.80
2023-02-19T02:39:45.159Z,3.70
2023-02-19T02:42:14.562Z,3.50
2023-02-19T02:44:16.402Z,3.40
2023-02-19T02:46:28.133Z,3.40
2023-02-19T02:48:53.799Z,3.40
2023-02-19T02:51:01.515Z,3.30
2023-02-19T02:53:30.080Z,3.30
2023-02-19T02:55:38.975Z,3.20
2023-02-19T02:57:40.880Z,3.20
2023-02-19T02:59:44.826Z,3.10
2023-02-19T03:02:10.597Z,3.10
2023-02-19T03:04:19.061Z,3.00
2023-02-19T03:06:24.350Z,3.00
2023-02-19T03:08:29.438Z,3.00
2023-02-19T03:10:36.240Z,3.10
2023-02-19T03:12:59.256Z,2.90
2023-02-19T03:15:24.724Z,2.90
2023-02-19T03:18:04.098Z,2.90
2023-02-19T03:20:10.594Z,2.90
2023-02-19T03:22:17.686Z,2.80
2023-02-19T03:24:42.664Z,2.80
2023-02-19T03:26:54.160Z,2.80
2023-02-19T03:29:16.424Z,2.80
2023-02-19T03:31:22.470Z,2.90
2023-02-19T03:33:28.867Z,2.80
2023-02-19T03:35:33.147Z,2.80
2023-02-19T03:37:50.585Z,2.80
2023-02-19T03:39:53.908Z,2.80
2023-02-19T03:41:55.719Z,2.80
2023-02-19T03:44:17.348Z,2.70
2023-02-19T03:46:40.435Z,2.70
2023-02-19T03:48:53.133Z,2.80
2023-02-19T03:51:00.333Z,2.80
2023-02-19T03:53:18.597Z,2.70
2023-02-19T03:55:35.382Z,2.70
2023-02-19T03:57:52.149Z,2.70
2023-02-19T04:00:09.255Z,2.70
2023-02-19T04:02:24.136Z,2.70
2023-02-19T04:04:34.862Z,2.70
2023-02-19T04:06:39.016Z,2.70
2023-02-19T04:08:45.374Z,2.70
2023-02-19T04:10:49.137Z,2.60
2023-02-19T04:12:56.634Z,2.60
2023-02-19T04:15:10.712Z,2.70
2023-02-19T04:17:23.851Z,2.70
2023-02-19T04:19:27.464Z,2.70
2023-02-19T04:21:32.010Z,2.70
2023-02-19T04:23:39.423Z,2.70
2023-02-19T04:25:44.259Z,2.70
2023-02-19T04:27:46.804Z,2.70
2023-02-19T04:29:48.712Z,2.60
2023-02-19T04:31:50.650Z,2.70
2023-02-19T04:33:52.409Z,2.70
2023-02-19T04:35:54.283Z,2.70
2023-02-19T04:37:56.160Z,2.60
2023-02-19T04:39:57.991Z,2.70
2023-02-19T04:41:59.871Z,2.70
2023-02-19T04:44:01.721Z,2.70
2023-02-19T04:46:03.710Z,2.70
2023-02-19T04:48:06.068Z,2.60
2023-02-19T04:50:08.244Z,2.60
2023-02-19T04:52:10.444Z,2.70
2023-02-19T04:54:12.322Z,2.60
2023-02-19T04:56:15.812Z,2.60
2023-02-19T04:58:17.622Z,2.60
2023-02-19T05:00:19.668Z,2.60
2023-02-19T05:02:21.434Z,2.60
2023-02-19T05:04:24.008Z,2.60
2023-02-19T05:06:26.165Z,2.60
2023-02-19T05:08:27.992Z,2.60
2023-02-19T05:10:29.903Z,2.60
2023-02-19T05:12:31.838Z,2.60
2023-02-19T05:14:33.676Z,2.60
2023-02-19T05:16:35.509Z,2.60
2023-02-19T05:18:37.409Z,2.60
2023-02-19T05:20:39.299Z,2.60
2023-02-19T05:22:41.115Z,2.60
2023-02-19T05:24:43.011Z,2.60
2023-02-19T05:26:45.543Z,2.60
2023-02-19T05:28:50.131Z,2.60
2023-02-19T05:30:53.093Z,2.60
2023-02-19T05:32:54.982Z,2.60
2023-02-19T05:34:56.821Z,2.50
2023-02-19T05:36:58.678Z,2.50
2023-02-19T05:39:00.563Z,2.60
2023-02-19T05:41:15.067Z,2.50
2023-02-19T05:43:17.338Z,2.50
2023-02-19T05:45:19.176Z,2.50
2023-02-19T05:47:21.080Z,2.50
2023-02-19T05:49:22.988Z,2.50
2023-02-19T05:51:26.488Z,2.60
2023-02-19T05:53:28.406Z,2.60
2023-02-19T05:55:34.997Z,2.60
2023-02-19T05:57:43.532Z,2.70
2023-02-19T05:59:45.646Z,2.70
2023-02-19T06:01:48.671Z,2.70
2023-02-19T06:03:50.677Z,2.70
2023-02-19T06:05:52.416Z,2.70
2023-02-19T06:07:54.288Z,2.80
2023-02-19T06:09:56.159Z,2.80
2023-02-19T06:11:58.216Z,2.90
2023-02-19T06:14:00.156Z,2.90
2023-02-19T06:16:06.239Z,3.00
2023-02-19T06:18:08.114Z,3.00
2023-02-19T06:20:10.303Z,3.00
2023-02-19T06:22:14.130Z,3.10
2023-02-19T06:24:15.975Z,3.20
2023-02-19T06:26:23.433Z,3.20
2023-02-19T06:28:25.278Z,3.20
2023-02-19T06:30:27.138Z,3.30
2023-02-19T06:32:29.042Z,3.30
2023-02-19T06:34:31.326Z,3.40
2023-02-19T06:36:33.205Z,3.50
2023-02-19T06:38:35.071Z,3.50
2023-02-19T06:40:36.889Z,3.50
2023-02-19T06:42:38.758Z,3.60
2023-02-19T06:44:40.632Z,3.60
2023-02-19T06:46:42.754Z,3.70
2023-02-19T06:48:45.025Z,3.70
2023-02-19T06:50:46.872Z,3.80
2023-02-19T06:52:48.708Z,3.80
2023-02-19T06:54:50.541Z,3.80
2023-02-19T06:56:52.934Z,3.70
2023-02-19T06:58:56.209Z,3.70
2023-02-19T07:00:58.363Z,3.70
2023-02-19T07:03:00.541Z,3.60
2023-02-19T07:05:02.396Z,3.70
2023-02-19T07:07:04.501Z,3.60
2023-02-19T07:09:08.325Z,3.60
2023-02-19T07:11:10.549Z,3.70
2023-02-19T07:13:12.686Z,3.70
2023-02-19T07:15:14.685Z,3.80
2023-02-19T07:17:16.553Z,3.80
2023-02-19T07:19:18.447Z,3.90
2023-02-19T07:21:20.324Z,4.00
2023-02-19T07:23:22.260Z,4.10
2023-02-19T07:25:24.116Z,4.20
2023-02-19T07:27:25.997Z,4.30
2023-02-19T07:29:27.810Z,4.30
2023-02-19T07:31:29.858Z,4.30
2023-02-19T07:33:31.908Z,4.40
2023-02-19T07:35:33.769Z,4.40
2023-02-19T07:37:35.613Z,4.50
2023-02-19T07:39:37.463Z,4.60
2023-02-19T07:41:39.647Z,4.50
2023-02-19T07:43:41.541Z,4.80
2023-02-19T07:45:46.088Z,4.40
2023-02-19T07:47:48.045Z,4.40
2023-02-19T07:49:49.884Z,4.50
2023-02-19T07:51:51.827Z,4.60
2023-02-19T07:53:53.706Z,4.50
2023-02-19T07:56:03.327Z,4.70
2023-02-19T07:58:06.227Z,4.90
2023-02-19T08:00:08.543Z,4.80
2023-02-19T08:02:36.247Z,5.00
2023-02-19T08:04:38.193Z,5.20
2023-02-19T08:06:41.492Z,5.10
2023-02-19T08:08:43.399Z,5.10
2023-02-19T08:11:03.853Z,5.20
2023-02-19T08:13:22.868Z,5.10
2023-02-19T08:15:24.772Z,5.10
2023-02-19T08:17:26.744Z,5.30
2023-02-19T08:19:28.520Z,5.50
2023-02-19T08:21:33.498Z,5.70
2023-02-19T08:23:36.550Z,5.50
2023-02-19T08:25:39.384Z,5.30
2023-02-19T08:27:41.254Z,5.40
2023-02-19T08:29:43.128Z,5.80
2023-02-19T08:31:45.169Z,5.50
2023-02-19T08:33:47.081Z,5.60
2023-02-19T08:35:48.962Z,5.40
2023-02-19T08:37:50.839Z,5.60
2023-02-19T08:39:52.920Z,5.80
2023-02-19T08:41:54.685Z,5.90
2023-02-19T08:43:56.526Z,5.70
2023-02-19T08:45:58.511Z,5.40
2023-02-19T08:48:00.917Z,5.60
2023-02-19T08:50:05.056Z,5.80
2023-02-19T08:52:06.965Z,5.70
2023-02-19T08:54:09.392Z,5.50
2023-02-19T08:56:16.492Z,5.50
2023-02-19T08:58:18.390Z,5.60
2023-02-19T09:00:23.970Z,5.70
2023-02-19T09:02:26.909Z,5.70
2023-02-19T09:04:29.496Z,5.90
2023-02-19T09:06:31.589Z,5.90
2023-02-19T09:08:33.487Z,5.60
2023-02-19T09:10:37.220Z,5.80
2023-02-19T09:12:40.810Z,6.00
2023-02-19T09:14:42.872Z,5.80
2023-02-19T09:16:44.660Z,6.00
2023-02-19T09:18:46.890Z,5.90
2023-02-19T09:20:48.746Z,5.80
2023-02-19T09:22:56.107Z,5.90
2023-02-19T09:24:58.154Z,6.20
2023-02-19T09:27:00.783Z,6.50
2023-02-19T09:29:03.339Z,6.20
2023-02-19T09:31:07.817Z,5.90
2023-02-19T09:33:10.238Z,6.00
2023-02-19T09:35:12.623Z,6.20
2023-02-19T09:37:14.882Z,6.10
2023-02-19T09:39:16.977Z,6.20
2023-02-19T09:41:29.108Z,6.30
2023-02-19T09:43:31.414Z,5.70
2023-02-19T09:45:36.006Z,5.90
2023-02-19T09:47:37.890Z,6.20
2023-02-19T09:49:41.969Z,6.10
2023-02-19T09:51:52.564Z,6.80
2023-02-19T09:53:55.431Z,6.80
2023-02-19T09:55:57.476Z,7.00
2023-02-19T09:58:00.322Z,7.00
2023-02-19T10:00:22.634Z,6.60
2023-02-19T10:02:25.875Z,6.40
2023-02-19T10:04:28.122Z,6.40
2023-02-19T10:06:32.136Z,6.00
2023-02-19T10:08:35.826Z,6.50
2023-02-19T10:10:37.927Z,6.50
2023-02-19T10:12:45.790Z,6.10
2023-02-19T10:14:51.182Z,6.30
2023-02-19T10:16:53.691Z,6.40
2023-02-19T10:18:56.607Z,6.60
2023-02-19T10:20:58.794Z,6.40
2023-02-19T10:23:07.353Z,6.60
2023-02-19T10:25:14.929Z,6.00
2023-02-19T10:27:16.843Z,5.90
2023-02-19T10:29:20.087Z,6.10
2023-02-19T10:31:25.515Z,6.30
2023-02-19T10:33:27.639Z,6.50
2023-02-19T10:35:30.155Z,6.40
2023-02-19T10:37:32.606Z,6.60
2023-02-19T10:39:39.027Z,6.70
2023-02-19T10:41:44.117Z,6.50
2023-02-19T10:43:55.825Z,6.50
2023-02-19T10:46:01.246Z,6.50
2023-02-19T10:48:04.058Z,6.50
2023-02-19T10:50:06.715Z,6.60
2023-02-19T10:52:17.884Z,6.80
2023-02-19T10:54:24.123Z,6.70
2023-02-19T10:56:31.282Z,7.20
2023-02-19T10:58:34.629Z,7.40
2023-02-19T11:00:36.729Z,7.50
2023-02-19T11:02:38.478Z,7.30
2023-02-19T11:04:40.421Z,6.80
2023-02-19T11:06:42.394Z,7.30
2023-02-19T11:08:51.885Z,7.50
2023-02-19T11:10:53.922Z,7.00
2023-02-19T11:13:00.248Z,6.60
2023-02-19T11:15:30.358Z,6.20
2023-02-19T11:17:32.316Z,6.50
2023-02-19T11:19:43.400Z,6.70
2023-02-19T11:21:45.268Z,6.30
2023-02-19T11:23:47.571Z,6.60
2023-02-19T11:25:53.015Z,6.40
2023-02-19T11:28:07.984Z,6.70
2023-02-19T11:30:36.080Z,6.80
2023-02-19T11:32:38.131Z,6.80
2023-02-19T11:34:39.957Z,6.70
2023-02-19T11:36:42.773Z,6.80
2023-02-19T11:38:44.790Z,6.50
2023-02-19T11:41:14.095Z,6.20
2023-02-19T11:43:36.109Z,6.00
2023-02-19T11:45:48.207Z,6.10
2023-02-19T11:47:55.719Z,6.60
2023-02-19T11:50:27.476Z,6.80
2023-02-19T11:52:44.439Z,6.70
2023-02-19T11:55:20.480Z,6.70
2023-02-19T11:57:53.014Z,6.10
2023-02-19T12:00:16.846Z,6.30
2023-02-19T12:02:37.505Z,6.20
2023-02-19T12:04:54.397Z,6.10
2023-02-19T12:07:26.733Z,6.00
2023-02-19T12:09:31.407Z,6.60
2023-02-19T12:11:53.648Z,6.30
2023-02-19T12:14:29.784Z,6.30
2023-02-19T12:16:47.887Z,6.20
2023-02-19T12:19:05.135Z,6.10
2023-02-19T12:21:26.743Z,6.10
2023-02-19T12:23:43.628Z,6.20
2023-02-19T12:26:02.337Z,5.80
2023-02-19T12:28:22.016Z,5.80
2023-02-19T12:30:35.915Z,6.40
2023-02-19T12:32:55.955Z,6.60
2023-02-19T12:35:20.988Z,6.40
2023-02-19T12:37:48.488Z,6.40
2023-02-19T12:40:12.859Z,6.30
2023-02-19T12:42:36.438Z,6.20
2023-02-19T12:44:45.220Z,6.30
2023-02-19T12:46:52.950Z,6.40
2023-02-19T12:49:12.504Z,6.70
2023-02-19T12:51:20.036Z,6.40
2023-02-19T12:53:47.269Z,6.70
2023-02-19T12:55:49.399Z,6.80
2023-02-19T12:57:51.572Z,6.20
2023-02-19T13:00:04.674Z,6.20
2023-02-19T13:02:26.477Z,6.40
2023-02-19T13:04:43.467Z,6.10
2023-02-19T13:07:02.501Z,6.20
2023-02-19T13:09:34.459Z,6.00
2023-02-19T13:11:48.424Z,5.90
2023-02-19T13:13:58.882Z,6.10
2023-02-19T13:16:09.711Z,6.10
2023-02-19T13:18:26.527Z,6.40
2023-02-19T13:20:49.444Z,6.10
2023-02-19T13:23:17.756Z,5.90
2023-02-19T13:25:21.176Z,6.00
2023-02-19T13:30:21.195Z,6.10
2023-02-19T13:32:35.222Z,6.20
2023-02-19T13:34:48.074Z,6.10
2023-02-19T13:36:50.180Z,6.00
2023-02-19T13:38:52.803Z,5.90
2023-02-19T13:40:55.879Z,6.00
2023-02-19T13:43:01.658Z,6.10
2023-02-19T13:45:06.380Z,5.80
2023-02-19T13:47:46.627Z,5.90
2023-02-19T13:49:52.251Z,5.90
2023-02-19T13:52:02.364Z,5.70
2023-02-19T13:54:14.744Z,5.90
2023-02-19T13:56:31.569Z,5.80
2023-02-19T13:58:33.505Z,6.10
2023-02-19T14:00:52.117Z,6.10
2023-02-19T14:03:27.202Z,6.40
2023-02-19T14:06:07.466Z,6.40
2023-02-19T14:08:09.579Z,6.30
2023-02-19T14:10:12.724Z,6.10
2023-02-19T14:12:16.129Z,6.00
2023-02-19T14:14:41.319Z,6.00
2023-02-19T14:16:43.104Z,6.20
2023-02-19T14:18:46.605Z,6.30
2023-02-19T14:20:48.537Z,5.90
2023-02-19T14:23:01.610Z,6.00
2023-02-19T14:25:08.405Z,5.80
2023-02-19T14:27:11.114Z,6.00
2023-02-19T14:29:16.641Z,5.90
2023-02-19T14:31:21.867Z,6.00
2023-02-19T14:33:30.286Z,5.70
2023-02-19T14:35:42.883Z,5.70
2023-02-19T14:37:46.223Z,5.60
2023-02-19T14:39:48.937Z,5.60
2023-02-19T14:41:58.641Z,5.80
2023-02-19T14:44:02.147Z,5.80
2023-02-19T14:46:15.571Z,5.70
2023-02-19T14:48:28.539Z,5.60
2023-02-19T14:50:32.126Z,5.40
2023-02-19T14:52:45.759Z,5.50
2023-02-19T14:55:15.041Z,5.40
2023-02-19T14:57:29.007Z,5.60
2023-02-19T14:59:31.028Z,5.40
2023-02-19T15:01:32.891Z,5.70
2023-02-19T15:03:37.902Z,5.70
2023-02-19T15:05:39.799Z,5.40
2023-02-19T15:07:42.479Z,5.40
2023-02-19T15:09:49.540Z,5.50
2023-02-19T15:11:51.643Z,5.70
2023-02-19T15:14:03.798Z,5.50
2023-02-19T15:16:06.365Z,5.30
2023-02-19T15:18:08.303Z,5.10
2023-02-19T15:20:16.503Z,5.20
2023-02-19T15:22:24.818Z,5.10
2023-02-19T15:24:28.275Z,5.30
2023-02-19T15:26:41.459Z,5.00
2023-02-19T15:28:43.573Z,5.00
2023-02-19T15:30:45.634Z,5.00
2023-02-19T15:32:55.365Z,5.10
2023-02-19T15:34:59.483Z,5.10
2023-02-19T15:37:07.608Z,5.10
2023-02-19T15:39:22.704Z,4.80
2023-02-19T15:41:28.587Z,4.80
2023-02-19T15:43:54.484Z,4.90
2023-02-19T15:46:23.813Z,4.60
2023-02-19T15:48:31.791Z,4.50
2023-02-19T15:50:44.067Z,4.40
2023-02-19T15:52:52.716Z,4.30
2023-02-19T15:55:35.849Z,4.20
2023-02-19T15:57:43.314Z,4.20
2023-02-19T15:59:55.692Z,4.10
2023-02-19T16:01:58.304Z,4.20
2023-02-19T16:04:01.055Z,4.00
2023-02-19T16:06:17.010Z,4.20
2023-02-19T16:08:20.671Z,4.60
2023-02-19T16:10:24.681Z,4.50
2023-02-19T16:12:28.343Z,4.30
2023-02-19T16:14:35.882Z,4.10
2023-02-19T16:16:41.709Z,4.00
2023-02-19T16:18:49.430Z,3.90
2023-02-19T16:20:51.681Z,4.00
2023-02-19T16:23:20.870Z,4.00
2023-02-19T16:25:44.572Z,3.90
2023-02-19T16:27:46.477Z,3.80
2023-02-19T16:29:51.809Z,3.90
2023-02-19T16:32:07.701Z,4.00
2023-02-19T16:34:18.731Z,3.80
2023-02-19T16:36:22.356Z,3.80
2023-02-19T16:38:24.652Z,3.80
2023-02-19T16:40:38.707Z,3.50
2023-02-19T16:42:49.667Z,3.50
2023-02-19T16:44:51.570Z,3.40
2023-02-19T16:47:01.571Z,3.50
2023-02-19T16:49:03.485Z,3.50
2023-02-19T16:51:07.142Z,3.50
2023-02-19T16:53:21.831Z,3.50
2023-02-19T16:55:24.453Z,3.40
2023-02-19T16:57:26.353Z,3.40
2023-02-19T16:59:28.238Z,3.40
2023-02-19T17:01:30.321Z,3.40
2023-02-19T17:03:32.067Z,3.40
2023-02-19T17:05:34.099Z,3.40
2023-02-19T17:07:35.932Z,3.50
2023-02-19T17:09:37.764Z,3.60
2023-02-19T17:11:39.736Z,3.60
2023-02-19T17:13:42.384Z,3.40
2023-02-19T17:15:44.425Z,3.30
2023-02-19T17:17:46.433Z,3.30
2023-02-19T17:19:48.720Z,3.30
2023-02-19T17:21:50.700Z,3.40
2023-02-19T17:23:54.016Z,3.40
2023-02-19T17:25:56.007Z,3.40
2023-02-19T17:27:57.860Z,3.50
2023-02-19T17:29:59.894Z,3.80
2023-02-19T17:32:01.803Z,3.60
2023-02-19T17:34:03.751Z,3.60
2023-02-19T17:36:06.320Z,3.60
2023-02-19T17:38:10.284Z,3.60
2023-02-19T17:40:32.747Z,3.70
2023-02-19T17:42:35.715Z,3.60
2023-02-19T17:44:37.568Z,3.60
2023-02-19T17:46:39.718Z,3.60
2023-02-19T17:48:42.074Z,3.60
2023-02-19T17:50:44.174Z,3.60
2023-02-19T17:52:45.917Z,3.50
2023-02-19T17:54:47.771Z,3.50
2023-02-19T17:56:49.714Z,3.50
2023-02-19T17:58:51.906Z,3.40
2023-02-19T18:01:05.809Z,3.40
2023-02-19T18:03:08.099Z,3.30
2023-02-19T18:05:10.077Z,3.30
2023-02-19T18:07:12.095Z,3.30
2023-02-19T18:09:15.441Z,3.30
2023-02-19T18:11:29.352Z,3.30
2023-02-19T18:13:43.160Z,3.30
2023-02-19T18:15:45.638Z,3.30
2023-02-19T18:17:47.853Z,3.30
2023-02-19T18:19:50.680Z,3.40
2023-02-19T18:21:52.853Z,3.60
2023-02-19T18:23:54.760Z,3.50
2023-02-19T18:25:56.863Z,3.60
2023-02-19T18:28:05.632Z,3.60
2023-02-19T18:30:08.651Z,3.50
2023-02-19T18:32:10.830Z,3.40
2023-02-19T18:34:26.213Z,3.30
2023-02-19T18:36:28.090Z,3.30
2023-02-19T18:38:30.191Z,3.30
2023-02-19T18:40:32.178Z,3.30
2023-02-19T18:42:34.083Z,3.40
2023-02-19T18:44:36.119Z,3.40
2023-02-19T18:46:37.875Z,3.40
2023-02-19T18:48:39.887Z,3.40
2023-02-19T18:50:41.672Z,3.40
2023-02-19T18:52:43.608Z,3.50
2023-02-19T18:54:45.446Z,3.50
2023-02-19T18:56:53.436Z,3.50
2023-02-19T18:58:55.516Z,3.60
2023-02-19T19:00:59.552Z,3.60
2023-02-19T19:03:08.154Z,3.60
2023-02-19T19:05:13.697Z,3.60
2023-02-19T19:07:18.963Z,3.60
2023-02-19T19:09:20.870Z,3.60
2023-02-19T19:11:22.729Z,3.60
2023-02-19T19:13:25.481Z,3.60
2023-02-19T19:15:27.608Z,3.60
2023-02-19T19:17:29.536Z,3.60
2023-02-19T19:19:31.531Z,3.60
2023-02-19T19:21:33.526Z,3.60
2023-02-19T19:23:36.118Z,3.60
2023-02-19T19:25:38.409Z,3.60
2023-02-19T19:27:40.341Z,3.70
2023-02-19T19:29:44.326Z,3.60
2023-02-19T19:31:46.463Z,3.60
2023-02-19T19:33:49.015Z,3.50
2023-02-19T19:35:51.142Z,3.60
2023-02-19T19:37:53.126Z,3.60
2023-02-19T19:40:03.892Z,3.60
2023-02-19T19:42:10.796Z,3.60
2023-02-19T19:44:13.017Z,3.70
2023-02-19T19:46:20.039Z,3.60
2023-02-19T19:48:22.650Z,3.70
2023-02-19T19:50:24.488Z,3.70
2023-02-19T19:52:26.328Z,3.80
2023-02-19T19:54:29.056Z,3.80
2023-02-19T19:56:31.377Z,3.80
2023-02-19T19:58:34.249Z,3.90
2023-02-19T20:00:36.310Z,3.80
2023-02-19T20:02:38.048Z,4.00
2023-02-19T20:04:39.982Z,4.00
2023-02-19T20:06:41.859Z,4.00
2023-02-19T20:08:43.904Z,4.00
2023-02-19T20:10:46.293Z,4.00
2023-02-19T20:12:48.274Z,4.00
2023-02-19T20:14:50.111Z,4.00
2023-02-19T20:16:53.270Z,4.00
2023-02-19T20:18:55.287Z,4.00
2023-02-19T20:20:57.100Z,4.00
2023-02-19T20:22:59.165Z,4.00
2023-02-19T20:25:01.087Z,3.90
2023-02-19T20:27:03.254Z,3.90
2023-02-19T20:29:06.202Z,4.00
2023-02-19T20:31:08.636Z,3.90
2023-02-19T20:33:10.562Z,3.90
2023-02-19T20:35:12.620Z,3.90
2023-02-19T20:37:15.645Z,3.80
2023-02-19T20:39:19.526Z,3.80
2023-02-19T20:41:21.765Z,3.80
2023-02-19T20:43:23.709Z,3.70
2023-02-19T20:45:25.594Z,3.70
2023-02-19T20:47:28.231Z,3.70
2023-02-19T20:49:31.546Z,3.70
2023-02-19T20:51:33.550Z,3.70
2023-02-19T20:53:35.362Z,3.70
2023-02-19T20:55:37.698Z,3.60
2023-02-19T20:57:39.861Z,3.60
2023-02-19T20:59:44.244Z,3.60
2023-02-19T21:01:46.735Z,3.60
2023-02-19T21:03:48.575Z,3.50
2023-02-19T21:05:50.519Z,3.50
2023-02-19T21:07:52.509Z,3.50
2023-02-19T21:09:54.763Z,3.40
2023-02-19T21:11:56.890Z,3.40
2023-02-19T21:13:59.549Z,3.40
2023-02-19T21:16:02.056Z,3.30
2023-02-19T21:18:05.841Z,3.30
2023-02-19T21:20:08.440Z,3.30
2023-02-19T21:22:10.296Z,3.30
2023-02-19T21:24:13.935Z,3.30
2023-02-19T21:26:15.806Z,3.30
2023-02-19T21:28:18.862Z,3.30
2023-02-19T21:30:20.792Z,3.30
2023-02-19T21:32:22.849Z,3.30
2023-02-19T21:34:27.369Z,3.20
2023-02-19T21:36:29.254Z,3.30
2023-02-19T21:38:32.665Z,3.20
2023-02-19T21:40:34.670Z,3.20
2023-02-19T21:42:36.589Z,3.30
2023-02-19T21:44:38.442Z,3.30
2023-02-19T21:46:40.503Z,3.20
2023-02-19T21:48:42.309Z,3.20
2023-02-19T21:50:45.731Z,3.20
2023-02-19T21:52:48.173Z,3.20
2023-02-19T21:54:50.116Z,3.20
2023-02-19T21:56:53.539Z,3.10
2023-02-19T21:58:55.524Z,3.10
2023-02-19T22:00:58.311Z,3.10
2023-02-19T22:03:00.224Z,3.20
2023-02-19T22:05:02.658Z,3.10
2023-02-19T22:07:04.880Z,3.10
2023-02-19T22:09:08.157Z,3.10
2023-02-19T22:11:10.016Z,3.10
2023-02-19T22:13:12.003Z,3.00
2023-02-19T22:15:13.859Z,3.10
2023-02-19T22:17:15.813Z,3.00
2023-02-19T22:19:17.786Z,2.90
2023-02-19T22:21:21.697Z,2.90
2023-02-19T22:23:23.589Z,2.90
2023-02-19T22:25:25.509Z,2.90
2023-02-19T22:27:29.047Z,2.90
2023-02-19T22:29:31.315Z,2.80
2023-02-19T22:31:34.040Z,2.80
2023-02-19T22:33:35.981Z,2.70
2023-02-19T22:35:37.852Z,2.80
2023-02-19T22:37:39.731Z,2.70
2023-02-19T22:39:41.558Z,2.60
2023-02-19T22:41:43.831Z,2.50
2023-02-19T22:43:45.907Z,2.60
2023-02-19T22:45:48.002Z,2.50
2023-02-19T22:47:49.888Z,2.50
2023-02-19T22:49:52.081Z,2.50
2023-02-19T22:52:02.182Z,2.40
2023-02-19T22:54:04.239Z,2.50
2023-02-19T22:56:06.219Z,2.40
2023-02-19T22:58:08.300Z,2.30
2023-02-19T23:00:11.506Z,2.40
2023-02-19T23:02:13.462Z,2.30
2023-02-19T23:04:15.616Z,2.20
2023-02-19T23:06:21.074Z,2.20
2023-02-19T23:08:23.014Z,2.20
2023-02-19T23:10:24.918Z,2.30
2023-02-19T23:12:26.780Z,2.20
2023-02-19T23:14:28.894Z,2.10
2023-02-19T23:16:35.635Z,2.10
2023-02-19T23:18:37.518Z,2.10
2023-02-19T23:20:39.461Z,2.10
2023-02-19T23:22:41.393Z,2.10
2023-02-19T23:24:43.249Z,2.10
2023-02-19T23:26:47.633Z,2.00
2023-02-19T23:28:49.878Z,1.90
2023-02-19T23:30:51.814Z,1.90
2023-02-19T23:32:53.744Z,2.00
2023-02-19T23:34:55.608Z,2.00
2023-02-19T23:36:59.630Z,1.90
2023-02-19T23:39:01.551Z,2.00
2023-02-19T23:41:03.966Z,1.90
2023-02-19T23:43:05.911Z,1.90
2023-02-19T23:45:07.973Z,1.80
2023-02-19T23:47:09.770Z,1.80
2023-02-19T23:49:12.207Z,1.80
2023-02-19T23:51:14.636Z,1.80
2023-02-19T23:53:16.605Z,1.80
2023-02-19T23:55:18.455Z,1.70
2023-02-19T23:57:20.334Z,1.70
2023-02-19T23:59:22.239Z,1.70
